Ethel, MS (39067)

4:30 AM CST on December 18, 2014 (GMT -0600)
EOC | Change Station
CLOSE
Current Station
Personal Weather Station
Location: Kosciusko, MS
Elevation: 459 ft
Nearby Weather Stations

Elev 459 ft 33.06 °N, 89.59 °W | Updated 15 seconds ago

Overcast
Overcast
41.5 °F
Feels Like 42 °F
N
0.0
Wind Variable Wind from East
Gusts 0.0 mph

Today
High -- | Low -- °F
--% Chance of Precip.
Yesterday
High -- | Low -- °F
Precip. -- in
6:55 AM 4:53 PM
Waning Crescent, 15% visible
Pressure 30.23 in
Visibility 10.0 miles
Clouds Mostly Cloudy 7000 ft
Overcast 10000 ft
Windchill 42 °F
Dew Point 39 °F
Humidity 88%
Rainfall 0.00 in
Snow Depth Not available.
UV 0 out of 12
Pollen 1.50 out of 12
Air Quality Not available.
Flu Activity Not available.
METAR KGWO 180953Z AUTO 05006KT 10SM -RA BKN070 OVC100 06/03 A3023 RMK AO2 RAB03 SLP235 P0001 T00610033

More Conditions Fewer Conditions

Pressure 30.23 in
Visibility 10.0 miles
Clouds Mostly Cloudy 7000 ft
Overcast 10000 ft
Windchill 42 °F
Dew Point 39 °F
Humidity 88%
Rainfall 0.00 in
Snow Depth Not available.
UV 0 out of 12
Pollen 1.50 out of 12
Air Quality Not available.
Flu Activity Not available.
METAR KGWO 180953Z AUTO 05006KT 10SM -RA BKN070 OVC100 06/03 A3023 RMK AO2 RAB03 SLP235 P0001 T00610033

More Conditions Fewer Conditions

10-Day Weather Forecast

Almanac

Astronomy

Dec. 18, 2014 Rise Set
Actual Time
Civil Twilight
Nautical Twilight
Astronomical Twilight
Moon
Length of Visible Light
Length of Day
Tomorrow will be .
, % of the Moon is Illuminated

Today's Extremes

State Highs State Lows

Community

WunderPhotos

Upload Photos

1,778,907 photos uploaded!

WunderBlogs® & News

Nearby

Air Quality

  Air Quality AQ Index Pollutant
Not available.

Snow Depth

Station Depth Elevation

Earthquake Activity

City Distance Mag. Time & Date
Minimum magnitude displayed is 2.5.

Coastal Water Temperatures

Place Temperature

Nearby Weather Stations